createdAt,value
2019-01-25T00:01:36.746Z,-5.20
2019-01-25T00:04:06.164Z,-5.20
2019-01-25T00:06:35.498Z,-5.20
2019-01-25T00:09:07.934Z,-5.20
2019-01-25T00:11:37.327Z,-5.20
2019-01-25T00:14:25.711Z,-5.20
2019-01-25T00:16:55.045Z,-5.20
2019-01-25T00:19:24.363Z,-5.20
2019-01-25T00:21:53.778Z,-5.30
2019-01-25T00:24:23.122Z,-5.30
2019-01-25T00:26:52.451Z,-5.30
2019-01-25T00:29:21.799Z,-5.40
2019-01-25T00:32:10.242Z,-5.40
2019-01-25T00:34:39.646Z,-5.30
2019-01-25T00:37:08.974Z,-5.40
2019-01-25T00:39:38.306Z,-5.40
2019-01-25T00:42:07.642Z,-5.40
2019-01-25T00:44:37.891Z,-5.50
2019-01-25T00:47:07.222Z,-5.40
2019-01-25T00:49:36.571Z,-5.40
2019-01-25T00:55:12.711Z,-5.40
2019-01-25T00:57:42.034Z,-5.30
2019-01-25T01:00:15.166Z,-5.40
2019-01-25T01:02:44.504Z,-5.50
2019-01-25T01:05:14.602Z,-5.50
2019-01-25T01:07:44.229Z,-5.50
2019-01-25T01:10:14.320Z,-5.50
2019-01-25T01:12:43.870Z,-5.50
2019-01-25T01:15:13.570Z,-5.50
2019-01-25T01:18:01.946Z,-5.50
2019-01-25T01:20:31.288Z,-5.60
2019-01-25T01:23:00.610Z,-5.50
2019-01-25T01:25:30.039Z,-5.50
2019-01-25T01:27:59.362Z,-5.50
2019-01-25T01:30:28.698Z,-5.50
2019-01-25T01:32:58.032Z,-5.40
2019-01-25T01:35:27.446Z,-5.40
2019-01-25T01:37:56.770Z,-5.40
2019-01-25T01:40:26.834Z,-5.30
2019-01-25T01:42:56.179Z,-5.40
2019-01-25T01:45:44.554Z,-5.40
2019-01-25T01:48:13.878Z,-5.40
2019-01-25T01:50:43.223Z,-5.40
2019-01-25T01:53:12.562Z,-5.50
2019-01-25T01:55:41.878Z,-5.60
2019-01-25T01:58:11.218Z,-5.70
2019-01-25T02:00:59.747Z,-5.70
2019-01-25T02:03:29.115Z,-5.60
2019-01-25T02:05:58.434Z,-5.60
2019-01-25T02:08:27.754Z,-5.70
2019-01-25T02:10:57.082Z,-5.70
2019-01-25T02:13:45.462Z,-5.50
2019-01-25T02:16:14.793Z,-5.50
2019-01-25T02:18:44.110Z,-5.50
2019-01-25T02:21:14.202Z,-5.50
2019-01-25T02:23:43.538Z,-5.50
2019-01-25T02:26:12.861Z,-5.50
2019-01-25T02:28:42.192Z,-5.50
2019-01-25T02:31:30.574Z,-5.40
2019-01-25T02:34:00.719Z,-5.30
2019-01-25T02:36:30.198Z,-5.40
2019-01-25T02:38:59.533Z,-5.40
2019-01-25T02:41:48.486Z,-5.40
2019-01-25T02:44:17.806Z,-5.40
2019-01-25T02:46:47.143Z,-5.40
2019-01-25T02:49:16.470Z,-5.40
2019-01-25T02:51:45.806Z,-5.50
2019-01-25T02:54:15.145Z,-5.50
2019-01-25T02:56:44.551Z,-5.60
2019-01-25T02:59:13.874Z,-5.50
2019-01-25T03:01:43.214Z,-5.50
2019-01-25T03:04:12.551Z,-5.40
2019-01-25T03:06:41.891Z,-5.40
2019-01-25T03:09:11.635Z,-5.30
2019-01-25T03:11:40.968Z,-5.20
2019-01-25T03:14:10.375Z,-5.20
2019-01-25T03:16:39.713Z,-5.20
2019-01-25T03:19:28.123Z,-5.20
2019-01-25T03:21:57.532Z,-5.10
2019-01-25T03:24:26.948Z,-5.10
2019-01-25T03:26:56.280Z,-5.00
2019-01-25T03:29:25.606Z,-5.00
2019-01-25T03:31:54.962Z,-4.90
2019-01-25T03:34:24.354Z,-5.00
2019-01-25T03:36:53.686Z,-5.00
2019-01-25T03:39:23.014Z,-5.00
2019-01-25T03:42:11.399Z,-5.00
2019-01-25T03:47:45.751Z,-4.90
2019-01-25T03:50:18.572Z,-4.90
2019-01-25T03:52:47.903Z,-4.90
2019-01-25T03:55:17.443Z,-4.90
2019-01-25T03:57:46.878Z,-4.90
2019-01-25T04:00:18.356Z,-4.90
2019-01-25T04:02:47.686Z,-4.80
2019-01-25T04:05:17.423Z,-4.80
2019-01-25T04:07:47.174Z,-4.80
2019-01-25T04:10:18.087Z,-4.80
2019-01-25T04:12:47.434Z,-4.70
2019-01-25T04:15:25.014Z,-4.70
2019-01-25T04:17:54.623Z,-4.70
2019-01-25T04:20:24.408Z,-4.70
2019-01-25T04:22:53.940Z,-4.70
2019-01-25T04:25:23.642Z,-4.70
2019-01-25T04:33:59.868Z,-4.60
2019-01-25T04:36:29.203Z,-4.60
2019-01-25T04:38:58.534Z,-4.60
2019-01-25T04:41:27.860Z,-4.60
2019-01-25T04:43:57.195Z,-4.50
2019-01-25T04:46:26.534Z,-4.50
2019-01-25T04:48:55.869Z,-4.50
2019-01-25T04:51:25.274Z,-4.50
2019-01-25T04:53:54.596Z,-4.40
2019-01-25T04:56:23.937Z,-4.40
2019-01-25T04:58:53.268Z,-4.40
2019-01-25T05:01:22.599Z,-4.40
2019-01-25T05:04:10.979Z,-4.40
2019-01-25T05:06:59.364Z,-4.30
2019-01-25T05:09:31.806Z,-4.40
2019-01-25T05:12:01.203Z,-4.40
2019-01-25T05:14:34.746Z,-4.40
2019-01-25T05:17:04.550Z,-4.40
2019-01-25T05:19:39.814Z,-4.40
2019-01-25T05:22:09.147Z,-4.40
2019-01-25T05:24:38.488Z,-4.30
2019-01-25T05:27:07.819Z,-4.20
2019-01-25T05:29:56.247Z,-4.20
2019-01-25T05:32:25.654Z,-4.20
2019-01-25T05:34:54.988Z,-4.20
2019-01-25T05:37:24.356Z,-4.20
2019-01-25T05:39:53.687Z,-4.10
2019-01-25T05:42:23.027Z,-4.10
2019-01-25T05:44:52.368Z,-4.10
2019-01-25T05:47:21.699Z,-4.10
2019-01-25T05:49:51.034Z,-4.10
2019-01-25T05:52:21.036Z,-4.00
2019-01-25T05:55:12.026Z,-4.00
2019-01-25T05:57:41.354Z,-4.00
2019-01-25T06:00:12.470Z,-4.00
2019-01-25T06:02:41.803Z,-4.00
2019-01-25T06:05:11.282Z,-4.10
2019-01-25T06:07:40.610Z,-4.00
2019-01-25T06:10:32.830Z,-4.00
2019-01-25T06:13:02.163Z,-4.00
2019-01-25T06:15:31.486Z,-4.00
2019-01-25T06:18:02.825Z,-4.00
2019-01-25T06:20:32.202Z,-4.00
2019-01-25T06:23:01.618Z,-4.00
2019-01-25T06:25:30.951Z,-4.00
2019-01-25T06:28:00.289Z,-3.90
2019-01-25T06:30:29.626Z,-3.90
2019-01-25T06:32:58.961Z,-3.90
2019-01-25T06:35:28.287Z,-3.90
2019-01-25T06:37:57.614Z,-3.80
2019-01-25T06:40:26.964Z,-3.80
2019-01-25T06:42:56.295Z,-3.80
2019-01-25T06:45:25.630Z,-3.80
2019-01-25T06:47:54.979Z,-3.80
2019-01-25T06:50:24.382Z,-3.80
2019-01-25T06:55:59.323Z,-3.80
2019-01-25T06:58:50.359Z,-3.80
2019-01-25T07:01:37.310Z,-3.80
2019-01-25T07:04:06.855Z,-3.80
2019-01-25T07:06:36.202Z,-3.70
2019-01-25T07:09:09.578Z,-3.70
2019-01-25T07:11:57.981Z,-3.70
2019-01-25T07:14:27.342Z,-3.70
2019-01-25T07:16:56.682Z,-3.70
2019-01-25T07:19:26.034Z,-3.70
2019-01-25T07:21:55.371Z,-3.70
2019-01-25T07:24:24.706Z,-3.70
2019-01-25T07:26:54.051Z,-3.70
2019-01-25T07:29:23.480Z,-3.60
2019-01-25T07:31:52.892Z,-3.60
2019-01-25T07:34:22.249Z,-3.60
2019-01-25T07:36:52.120Z,-3.60
2019-01-25T07:39:28.795Z,-3.60
2019-01-25T07:41:59.591Z,-3.60
2019-01-25T07:44:30.014Z,-3.50
2019-01-25T07:46:59.497Z,-3.50
2019-01-25T07:49:28.907Z,-3.50
2019-01-25T07:51:58.280Z,-3.50
2019-01-25T07:54:27.703Z,-3.40
2019-01-25T07:56:57.127Z,-3.40
2019-01-25T07:59:26.463Z,-3.40
2019-01-25T08:01:55.822Z,-3.40
2019-01-25T08:04:25.230Z,-3.30
2019-01-25T08:06:54.647Z,-3.30
2019-01-25T08:09:24.052Z,-2.80
2019-01-25T08:11:53.479Z,-3.00
2019-01-25T08:14:22.812Z,-3.10
2019-01-25T08:16:52.169Z,-3.10
2019-01-25T08:19:21.645Z,-3.00
2019-01-25T08:21:51.002Z,-3.00
2019-01-25T08:24:20.429Z,-3.00
2019-01-25T08:26:49.864Z,-2.90
2019-01-25T08:29:19.284Z,-2.90
2019-01-25T08:31:49.127Z,-2.90
2019-01-25T08:34:18.575Z,-2.90
2019-01-25T08:36:47.933Z,-2.90
2019-01-25T08:39:17.337Z,-2.80
2019-01-25T08:41:46.680Z,-2.80
2019-01-25T08:44:16.099Z,-2.70
2019-01-25T08:46:45.476Z,-2.70
2019-01-25T08:49:14.882Z,-2.80
2019-01-25T08:52:03.345Z,-2.90
2019-01-25T08:54:32.780Z,-2.80
2019-01-25T08:57:02.151Z,-2.60
2019-01-25T08:59:31.517Z,-2.60
2019-01-25T09:02:19.962Z,-2.50
2019-01-25T09:04:49.372Z,-2.50
2019-01-25T09:07:18.776Z,-2.40
2019-01-25T09:09:48.202Z,-2.30
2019-01-25T09:12:23.199Z,-2.30
2019-01-25T09:14:48.731Z,-2.20
2019-01-25T09:17:18.064Z,-2.20
2019-01-25T09:19:47.423Z,-2.30
2019-01-25T09:22:16.837Z,-2.20
2019-01-25T09:24:46.247Z,-2.20
2019-01-25T09:27:15.610Z,-2.20
2019-01-25T09:29:44.948Z,-2.00
2019-01-25T09:32:14.411Z,-2.00
2019-01-25T09:38:40.933Z,-1.90
2019-01-25T09:41:57.109Z,-1.80
2019-01-25T09:45:10.119Z,-1.80
2019-01-25T09:47:52.166Z,-1.70
2019-01-25T09:54:33.284Z,-1.60
2019-01-25T09:57:54.883Z,-1.70
2019-01-25T10:04:34.331Z,-1.50
2019-01-25T10:07:49.602Z,-1.40
2019-01-25T10:10:29.500Z,-1.40
2019-01-25T10:13:12.892Z,-1.20
2019-01-25T10:16:01.889Z,-1.20
2019-01-25T10:22:03.955Z,-1.20
2019-01-25T10:25:10.311Z,-1.10
2019-01-25T10:28:57.166Z,-1.10
2019-01-25T10:32:00.196Z,-1.10
2019-01-25T10:35:07.267Z,-1.10
2019-01-25T10:37:43.272Z,-1.20
2019-01-25T10:40:29.934Z,-1.30
2019-01-25T10:43:06.708Z,-1.20
2019-01-25T10:45:49.594Z,-1.30
2019-01-25T10:48:24.626Z,-1.20
2019-01-25T10:51:14.090Z,-1.20
2019-01-25T10:54:09.525Z,-1.30
2019-01-25T10:56:52.784Z,-1.30
2019-01-25T10:59:50.006Z,-1.20
2019-01-25T11:02:14.863Z,-1.10
2019-01-25T11:04:50.535Z,-1.00
2019-01-25T11:07:30.563Z,-1.10
2019-01-25T11:10:02.437Z,-1.00
2019-01-25T11:12:35.728Z,-1.00
2019-01-25T11:15:08.046Z,-1.00
2019-01-25T11:17:38.744Z,-1.00
2019-01-25T11:20:14.440Z,-1.00
2019-01-25T11:22:48.791Z,-1.00
2019-01-25T11:25:38.985Z,-1.00
2019-01-25T11:31:48.950Z,-0.90
2019-01-25T11:43:08.873Z,-0.80
2019-01-25T12:21:30.541Z,-0.70
2019-01-25T12:29:29.951Z,-0.70
2019-01-25T12:41:06.752Z,-0.60
2019-01-25T12:54:06.269Z,-0.60
2019-01-25T13:01:12.254Z,-0.80
2019-01-25T13:04:06.462Z,-0.80
2019-01-25T13:06:59.263Z,-0.70
2019-01-25T13:09:41.037Z,-0.70
2019-01-25T13:12:37.763Z,-0.70
2019-01-25T13:15:14.070Z,-0.80
2019-01-25T13:18:08.142Z,-0.70
2019-01-25T13:28:36.510Z,-0.80
2019-01-25T13:31:16.401Z,-0.90
2019-01-25T13:33:55.695Z,-1.00
2019-01-25T13:36:47.250Z,-1.10
2019-01-25T13:39:24.108Z,-1.10
2019-01-25T13:42:17.921Z,-1.20
2019-01-25T13:45:01.770Z,-1.20
2019-01-25T13:47:35.276Z,-1.30
2019-01-25T13:50:06.627Z,-1.30
2019-01-25T13:52:40.158Z,-1.30
2019-01-25T13:55:23.696Z,-1.30
2019-01-25T13:58:06.421Z,-1.40
2019-01-25T14:00:50.411Z,-1.30
2019-01-25T14:03:31.757Z,-1.30
2019-01-25T14:06:30.742Z,-1.30
2019-01-25T14:09:02.655Z,-1.30
2019-01-25T14:11:38.082Z,-1.30
2019-01-25T14:14:39.568Z,-1.40
2019-01-25T14:17:29.356Z,-1.40
2019-01-25T14:20:23.482Z,-1.40
2019-01-25T14:23:30.835Z,-1.40
2019-01-25T14:26:31.473Z,-1.50
2019-01-25T14:29:32.477Z,-1.50
2019-01-25T14:35:22.789Z,-1.50
2019-01-25T14:38:05.968Z,-1.60
2019-01-25T14:40:49.904Z,-1.50
2019-01-25T14:43:24.204Z,-1.60
2019-01-25T14:45:57.757Z,-1.60
2019-01-25T14:48:28.412Z,-1.50
2019-01-25T14:51:03.607Z,-1.50
2019-01-25T14:53:34.304Z,-1.60
2019-01-25T14:56:10.682Z,-1.60
2019-01-25T14:58:54.325Z,-1.60
2019-01-25T15:01:25.104Z,-1.60
2019-01-25T15:03:57.444Z,-1.60
2019-01-25T15:06:28.019Z,-1.60
2019-01-25T15:09:04.630Z,-1.60
2019-01-25T15:11:38.870Z,-1.60
2019-01-25T15:14:09.645Z,-1.60
2019-01-25T15:20:05.266Z,-1.70
2019-01-25T15:22:48.207Z,-1.60
2019-01-25T15:25:44.735Z,-1.70
2019-01-25T15:28:33.739Z,-1.70
2019-01-25T15:31:35.463Z,-1.80
2019-01-25T15:37:22.934Z,-1.80
2019-01-25T15:40:23.328Z,-1.90
2019-01-25T15:43:37.968Z,-1.80
2019-01-25T15:46:17.959Z,-1.80
2019-01-25T15:48:53.676Z,-1.90
2019-01-25T15:51:52.895Z,-1.80
2019-01-25T15:54:33.490Z,-1.90
2019-01-25T15:57:13.963Z,-2.00
2019-01-25T15:59:51.706Z,-2.00
2019-01-25T16:03:18.285Z,-2.00
2019-01-25T16:05:51.572Z,-2.00
2019-01-25T16:08:26.910Z,-2.10
2019-01-25T16:11:03.662Z,-2.20
2019-01-25T16:13:32.130Z,-2.20
2019-01-25T16:16:02.921Z,-2.20
2019-01-25T16:19:15.501Z,-2.30
2019-01-25T16:21:46.134Z,-2.20
2019-01-25T16:24:16.838Z,-2.20
2019-01-25T16:26:47.394Z,-2.20
2019-01-25T16:29:18.136Z,-2.10
2019-01-25T16:31:48.766Z,-2.10
2019-01-25T16:34:28.788Z,-2.20
2019-01-25T16:37:26.727Z,-2.10
2019-01-25T16:40:05.841Z,-2.20
2019-01-25T16:47:44.399Z,-2.20
2019-01-25T16:51:33.683Z,-2.20
2019-01-25T16:58:28.250Z,-2.30
2019-01-25T17:05:24.186Z,-2.30
2019-01-25T17:11:38.617Z,-2.20
2019-01-25T17:14:18.378Z,-2.10
2019-01-25T17:16:52.079Z,-2.10
2019-01-25T17:19:49.953Z,-2.10
2019-01-25T17:23:09.512Z,-2.10
2019-01-25T17:30:37.876Z,-2.10
2019-01-25T17:33:29.750Z,-2.10
2019-01-25T17:36:05.651Z,-2.10
2019-01-25T17:39:18.179Z,-2.20
2019-01-25T17:41:51.786Z,-2.20
2019-01-25T17:44:47.873Z,-2.10
2019-01-25T17:47:26.769Z,-2.10
2019-01-25T17:50:15.202Z,-2.20
2019-01-25T17:53:07.816Z,-2.30
2019-01-25T17:55:51.376Z,-2.30
2019-01-25T17:58:39.452Z,-2.30
2019-01-25T18:01:16.233Z,-2.40
2019-01-25T18:04:08.199Z,-2.30
2019-01-25T18:06:47.691Z,-2.30
2019-01-25T18:09:21.040Z,-2.30
2019-01-25T18:12:04.356Z,-2.30
2019-01-25T18:14:54.060Z,-2.30
2019-01-25T18:17:56.571Z,-2.30
2019-01-25T18:23:53.145Z,-2.30
2019-01-25T18:32:46.886Z,-2.20
2019-01-25T18:35:20.968Z,-2.30
2019-01-25T18:37:55.664Z,-2.20
2019-01-25T18:40:30.504Z,-2.30
2019-01-25T18:43:06.805Z,-2.20
2019-01-25T18:45:40.896Z,-2.30
2019-01-25T18:48:15.334Z,-2.20
2019-01-25T18:50:49.180Z,-2.20
2019-01-25T18:53:25.714Z,-2.20
2019-01-25T18:56:02.400Z,-2.10
2019-01-25T18:58:35.964Z,-2.10
2019-01-25T19:01:06.955Z,-2.10
2019-01-25T19:03:48.114Z,-2.10
2019-01-25T19:06:18.283Z,-2.00
2019-01-25T19:09:03.016Z,-2.00
2019-01-25T19:11:42.162Z,-2.10
2019-01-25T19:14:21.089Z,-2.10
2019-01-25T19:16:51.816Z,-2.10
2019-01-25T19:19:27.266Z,-2.10
2019-01-25T19:21:59.595Z,-2.10
2019-01-25T19:24:30.498Z,-2.10
2019-01-25T19:27:06.893Z,-2.20
2019-01-25T19:29:37.945Z,-2.10
2019-01-25T19:32:15.210Z,-2.00
2019-01-25T19:35:05.307Z,-2.10
2019-01-25T19:37:34.663Z,-2.10
2019-01-25T19:40:22.491Z,-2.10
2019-01-25T19:42:54.835Z,-2.10
2019-01-25T19:45:31.101Z,-2.10
2019-01-25T19:48:03.543Z,-2.20
2019-01-25T19:50:44.107Z,-2.20
2019-01-25T19:53:14.801Z,-2.30
2019-01-25T19:56:05.771Z,-2.20
2019-01-25T19:58:39.714Z,-2.20
2019-01-25T20:01:18.576Z,-2.20
2019-01-25T20:03:54.644Z,-2.30
2019-01-25T20:10:28.534Z,-2.30
2019-01-25T20:16:13.144Z,-2.30
2019-01-25T20:23:23.805Z,-2.40
2019-01-25T20:26:35.321Z,-2.40
2019-01-25T20:29:02.966Z,-2.40
2019-01-25T20:31:33.629Z,-2.30
2019-01-25T20:34:04.190Z,-2.40
2019-01-25T20:37:12.073Z,-2.30
2019-01-25T20:39:37.333Z,-2.30
2019-01-25T20:42:10.993Z,-2.30
2019-01-25T20:44:43.832Z,-2.40
2019-01-25T20:47:16.319Z,-2.40
2019-01-25T20:49:49.759Z,-2.40
2019-01-25T20:52:23.225Z,-2.40
2019-01-25T20:54:55.404Z,-2.30
2019-01-25T20:57:26.139Z,-2.40
2019-01-25T20:59:56.893Z,-2.30
2019-01-25T21:02:27.515Z,-2.30
2019-01-25T21:04:58.071Z,-2.40
2019-01-25T21:07:28.762Z,-2.30
2019-01-25T21:10:01.733Z,-2.40
2019-01-25T21:12:35.358Z,-2.40
2019-01-25T21:15:10.318Z,-2.30
2019-01-25T21:17:41.051Z,-2.40
2019-01-25T21:20:17.651Z,-2.40
2019-01-25T21:22:48.551Z,-2.30
2019-01-25T21:25:19.677Z,-2.40
2019-01-25T21:27:53.217Z,-2.40
2019-01-25T21:30:28.126Z,-2.50
2019-01-25T21:32:58.838Z,-2.50
2019-01-25T21:35:47.226Z,-2.40
2019-01-25T21:38:16.606Z,-2.50
2019-01-25T21:40:48.991Z,-2.50
2019-01-25T21:43:19.611Z,-2.50
2019-01-25T21:45:50.341Z,-2.50
2019-01-25T21:48:23.078Z,-2.60
2019-01-25T21:50:56.208Z,-2.50
2019-01-25T21:53:28.123Z,-2.60
2019-01-25T21:55:59.091Z,-2.60
2019-01-25T21:58:30.288Z,-2.70
2019-01-25T22:01:02.056Z,-2.80
2019-01-25T22:03:35.645Z,-2.70
2019-01-25T22:06:06.718Z,-2.80
2019-01-25T22:08:40.250Z,-2.80
2019-01-25T22:11:11.064Z,-2.90
2019-01-25T22:13:43.152Z,-2.90
2019-01-25T22:16:18.192Z,-3.00
2019-01-25T22:18:48.775Z,-3.00
2019-01-25T22:21:19.457Z,-3.00
2019-01-25T22:23:52.332Z,-3.10
2019-01-25T22:26:25.935Z,-3.10
2019-01-25T22:28:58.153Z,-3.00
2019-01-25T22:31:32.653Z,-3.10
2019-01-25T22:34:04.373Z,-3.00
2019-01-25T22:36:35.148Z,-3.00
2019-01-25T22:39:09.976Z,-3.00
2019-01-25T22:41:46.730Z,-2.90
2019-01-25T22:44:21.331Z,-2.90
2019-01-25T22:46:51.968Z,-2.80
2019-01-25T22:49:22.581Z,-2.80
2019-01-25T22:51:58.957Z,-2.80
2019-01-25T22:54:30.842Z,-2.80
2019-01-25T22:57:03.806Z,-2.70
2019-01-25T22:59:34.467Z,-2.70
2019-01-25T23:02:09.031Z,-2.70
2019-01-25T23:04:54.948Z,-2.70
2019-01-25T23:07:29.098Z,-2.70
2019-01-25T23:10:17.409Z,-2.60
2019-01-25T23:12:53.502Z,-2.60
2019-01-25T23:15:24.222Z,-2.60
2019-01-25T23:17:54.873Z,-2.60
2019-01-25T23:20:27.747Z,-2.60
2019-01-25T23:23:02.931Z,-2.60
2019-01-25T23:25:33.590Z,-2.60
2019-01-25T23:28:04.245Z,-2.60
2019-01-25T23:30:37.092Z,-2.60
2019-01-25T23:33:07.906Z,-2.50
2019-01-25T23:35:42.919Z,-2.60
2019-01-25T23:38:12.514Z,-2.50
2019-01-25T23:40:44.327Z,-2.50
2019-01-25T23:43:14.980Z,-2.50
2019-01-25T23:45:45.579Z,-2.50
2019-01-25T23:48:16.180Z,-2.60
2019-01-25T23:50:46.808Z,-2.60
2019-01-25T23:53:19.908Z,-2.50
2019-01-25T23:55:50.598Z,-2.50
2019-01-25T23:58:21.238Z,-2.50
